Forside
METAR-TAF:

METAR-TAF

Lufthavne :

Pontoise, Frankrig

Breddekreds: 49-05-48N, længdekreds: 002-02-27E, højde: 99 m

Aktuelle vejr

Denne rapport blev lavet for 26 minutter siden, kl. 14:00 UTC
Vind 12 kt fra nordøst
Temperatur 11°C
Fugtighed 47%
Tryk 1026 hPa
Sigt 10 km eller mere
let finregn

METAR: LFPT 311400Z AUTO 05012KT 9999 -DZ NSC 11/00 Q1026

Tid: 16:26 (14:26 UTC)


TAF: fraværende

Vejrobservationer og prognoser fra mere end 4000 lufthavne (METAR og TAF).

De gule og røde prikker repræsenterer de meteorologiske stationer.

Flyt musen over at se navnet på stationen.

Så klik over at se vejr observationer og prognoser.

At skifte det kort: Klik på de grønne knapper med et sort kors for at zoome ind; på den grønne knap med en bindestreg for at zoome ud; eller på de grønne pile for tilstødende kort.


METAR-TAF: